sensor_id;sensor_type;location;lat;lon;timestamp;pressure;altitude;pressure_sealevel;temperature;humidity
78485;BME280;67773;50.806;8.776;2023-04-01T00:01:10;97720.63;;;8.08;88.16
78485;BME280;67773;50.806;8.776;2023-04-01T00:03:37;97719.25;;;8.15;88.46
78485;BME280;67773;50.806;8.776;2023-04-01T00:06:02;97713.31;;;8.11;88.59
78485;BME280;67773;50.806;8.776;2023-04-01T00:08:28;97717.88;;;8.09;87.87
78485;BME280;67773;50.806;8.776;2023-04-01T00:10:53;97716.53;;;8.04;89.32
78485;BME280;67773;50.806;8.776;2023-04-01T00:13:19;97715.56;;;8.05;88.81
78485;BME280;67773;50.806;8.776;2023-04-01T00:15:45;97708.19;;;7.97;89.26
78485;BME280;67773;50.806;8.776;2023-04-01T00:18:10;97708.09;;;7.99;89.30
78485;BME280;67773;50.806;8.776;2023-04-01T00:20:36;97717.25;;;8.06;88.90
78485;BME280;67773;50.806;8.776;2023-04-01T00:23:01;97707.34;;;7.97;88.34
78485;BME280;67773;50.806;8.776;2023-04-01T00:25:27;97709.56;;;8.03;88.64
78485;BME280;67773;50.806;8.776;2023-04-01T00:27:52;97707.13;;;8.00;88.58
78485;BME280;67773;50.806;8.776;2023-04-01T00:30:18;97709.03;;;7.98;88.79
78485;BME280;67773;50.806;8.776;2023-04-01T00:32:43;97709.66;;;8.01;88.51
78485;BME280;67773;50.806;8.776;2023-04-01T00:35:09;97713.66;;;8.07;88.61
78485;BME280;67773;50.806;8.776;2023-04-01T00:37:36;97713.66;;;8.07;88.64
78485;BME280;67773;50.806;8.776;2023-04-01T00:40:03;97710.28;;;8.05;88.01
78485;BME280;67773;50.806;8.776;2023-04-01T00:42:30;97708.63;;;8.04;88.17
78485;BME280;67773;50.806;8.776;2023-04-01T00:44:56;97710.22;;;7.94;88.83
78485;BME280;67773;50.806;8.776;2023-04-01T00:47:23;97721.41;;;7.97;89.08
78485;BME280;67773;50.806;8.776;2023-04-01T00:49:52;97714.09;;;8.01;88.98
78485;BME280;67773;50.806;8.776;2023-04-01T00:52:22;97708.31;;;7.96;88.77
78485;BME280;67773;50.806;8.776;2023-04-01T00:54:55;97702.00;;;7.86;89.00
78485;BME280;67773;50.806;8.776;2023-04-01T00:57:29;97710.13;;;7.95;89.13
78485;BME280;67773;50.806;8.776;2023-04-01T00:59:56;97707.34;;;7.97;89.16
78485;BME280;67773;50.806;8.776;2023-04-01T01:02:21;97696.06;;;7.95;88.87
78485;BME280;67773;50.806;8.776;2023-04-01T01:04:47;97698.91;;;7.92;87.94
78485;BME280;67773;50.806;8.776;2023-04-01T01:07:39;97697.03;;;7.94;88.00
78485;BME280;67773;50.806;8.776;2023-04-01T01:15:58;97699.13;;;7.89;87.64
78485;BME280;67773;50.806;8.776;2023-04-01T01:18:52;97694.69;;;7.89;88.04
78485;BME280;67773;50.806;8.776;2023-04-01T01:21:34;97695.75;;;7.87;88.75
78485;BME280;67773;50.806;8.776;2023-04-01T01:24:08;97676.13;;;7.78;88.28
78485;BME280;67773;50.806;8.776;2023-04-01T01:26:53;97686.66;;;7.91;88.41
78485;BME280;67773;50.806;8.776;2023-04-01T01:29:34;97686.75;;;7.89;88.26
78485;BME280;67773;50.806;8.776;2023-04-01T01:32:38;97697.31;;;7.89;88.38
78485;BME280;67773;50.806;8.776;2023-04-01T01:35:40;97697.22;;;7.91;88.26
78485;BME280;67773;50.806;8.776;2023-04-01T01:38:12;97691.53;;;7.84;88.39
78485;BME280;67773;50.806;8.776;2023-04-01T01:40:41;97692.16;;;7.88;88.64
78485;BME280;67773;50.806;8.776;2023-04-01T01:43:10;97690.59;;;7.85;88.51
78485;BME280;67773;50.806;8.776;2023-04-01T01:45:40;97685.63;;;7.80;88.54
78485;BME280;67773;50.806;8.776;2023-04-01T01:48:09;97678.16;;;7.74;88.42
78485;BME280;67773;50.806;8.776;2023-04-01T01:50:36;97684.16;;;7.76;88.42
78485;BME280;67773;50.806;8.776;2023-04-01T01:53:05;97682.47;;;7.75;88.97
78485;BME280;67773;50.806;8.776;2023-04-01T01:55:32;97684.69;;;7.69;88.76
78485;BME280;67773;50.806;8.776;2023-04-01T01:58:02;97679.94;;;7.74;88.30
78485;BME280;67773;50.806;8.776;2023-04-01T02:00:29;97683.84;;;7.68;89.09
78485;BME280;67773;50.806;8.776;2023-04-01T02:02:56;97683.94;;;7.79;88.77
78485;BME280;67773;50.806;8.776;2023-04-01T02:05:24;97682.06;;;7.81;88.55
78485;BME280;67773;50.806;8.776;2023-04-01T02:08:08;97692.50;;;7.70;88.82
78485;BME280;67773;50.806;8.776;2023-04-01T02:10:39;97688.00;;;7.72;88.64
78485;BME280;67773;50.806;8.776;2023-04-01T02:13:13;97686.38;;;7.70;89.59
78485;BME280;67773;50.806;8.776;2023-04-01T02:15:45;97684.16;;;7.76;88.60
78485;BME280;67773;50.806;8.776;2023-04-01T02:18:13;97673.19;;;7.70;88.32
78485;BME280;67773;50.806;8.776;2023-04-01T02:20:39;97673.75;;;7.62;89.11
78485;BME280;67773;50.806;8.776;2023-04-01T02:23:06;97682.28;;;7.66;88.41
78485;BME280;67773;50.806;8.776;2023-04-01T02:25:35;97684.28;;;7.75;88.37
78485;BME280;67773;50.806;8.776;2023-04-01T02:28:04;97688.94;;;7.71;89.02
78485;BME280;67773;50.806;8.776;2023-04-01T02:30:32;97684.19;;;7.64;88.28
78485;BME280;67773;50.806;8.776;2023-04-01T02:32:58;97689.44;;;7.76;88.36
78485;BME280;67773;50.806;8.776;2023-04-01T02:35:25;97692.31;;;7.73;88.36
78485;BME280;67773;50.806;8.776;2023-04-01T02:37:52;97697.06;;;7.68;88.47
78485;BME280;67773;50.806;8.776;2023-04-01T02:40:18;97691.59;;;7.71;88.14
78485;BME280;67773;50.806;8.776;2023-04-01T02:42:44;97691.59;;;7.71;88.10
78485;BME280;67773;50.806;8.776;2023-04-01T02:45:10;97687.22;;;7.70;88.04
78485;BME280;67773;50.806;8.776;2023-04-01T02:47:36;97684.81;;;7.67;87.92
78485;BME280;67773;50.806;8.776;2023-04-01T02:50:01;97677.13;;;7.64;88.11
78485;BME280;67773;50.806;8.776;2023-04-01T02:52:28;97688.06;;;7.71;88.37
78485;BME280;67773;50.806;8.776;2023-04-01T02:54:54;97694.41;;;7.68;88.48
78485;BME280;67773;50.806;8.776;2023-04-01T02:57:20;97695.38;;;7.67;88.55
78485;BME280;67773;50.806;8.776;2023-04-01T02:59:46;97685.03;;;7.64;88.28
78485;BME280;67773;50.806;8.776;2023-04-01T03:02:11;97688.53;;;7.65;88.06
78485;BME280;67773;50.806;8.776;2023-04-01T03:04:37;97690.09;;;7.67;88.26
78485;BME280;67773;50.806;8.776;2023-04-01T03:07:02;97683.75;;;7.70;87.79
78485;BME280;67773;50.806;8.776;2023-04-01T03:09:27;97684.19;;;7.64;88.35
78485;BME280;67773;50.806;8.776;2023-04-01T03:11:53;97691.38;;;7.62;88.24
78485;BME280;67773;50.806;8.776;2023-04-01T03:14:19;97684.31;;;7.62;88.00
78485;BME280;67773;50.806;8.776;2023-04-01T03:16:44;97692.84;;;7.66;88.48
78485;BME280;67773;50.806;8.776;2023-04-01T03:19:10;97680.72;;;7.63;87.66
78485;BME280;67773;50.806;8.776;2023-04-01T03:21:35;97694.34;;;7.57;87.87
78485;BME280;67773;50.806;8.776;2023-04-01T03:24:00;97675.34;;;7.52;88.34
78485;BME280;67773;50.806;8.776;2023-04-01T03:26:26;97674.09;;;7.45;87.79
78485;BME280;67773;50.806;8.776;2023-04-01T03:28:54;97690.34;;;7.51;88.25
78485;BME280;67773;50.806;8.776;2023-04-01T03:31:21;97686.94;;;7.49;88.11
78485;BME280;67773;50.806;8.776;2023-04-01T03:33:46;97688.44;;;7.53;88.24
78485;BME280;67773;50.806;8.776;2023-04-01T03:36:11;97688.56;;;7.52;87.67
78485;BME280;67773;50.806;8.776;2023-04-01T03:38:41;97688.75;;;7.49;87.52
78485;BME280;67773;50.806;8.776;2023-04-01T03:41:07;97700.25;;;7.48;88.03
78485;BME280;67773;50.806;8.776;2023-04-01T03:43:32;97689.69;;;7.48;88.03
78485;BME280;67773;50.806;8.776;2023-04-01T03:45:58;97686.41;;;7.57;88.07
78485;BME280;67773;50.806;8.776;2023-04-01T03:48:24;97684.72;;;7.56;87.92
78485;BME280;67773;50.806;8.776;2023-04-01T03:50:50;97692.75;;;7.55;87.90
78485;BME280;67773;50.806;8.776;2023-04-01T03:53:15;97688.66;;;7.50;87.78
78485;BME280;67773;50.806;8.776;2023-04-01T03:55:41;97686.53;;;7.56;87.59
78485;BME280;67773;50.806;8.776;2023-04-01T03:58:07;97684.63;;;7.58;87.46
78485;BME280;67773;50.806;8.776;2023-04-01T04:00:32;97691.19;;;7.52;87.47
78485;BME280;67773;50.806;8.776;2023-04-01T04:02:58;97687.72;;;7.51;86.77
78485;BME280;67773;50.806;8.776;2023-04-01T04:05:25;97682.31;;;7.53;86.94
78485;BME280;67773;50.806;8.776;2023-04-01T04:07:50;97685.56;;;7.57;86.94
78485;BME280;67773;50.806;8.776;2023-04-01T04:10:16;97673.25;;;7.44;86.56
78485;BME280;67773;50.806;8.776;2023-04-01T04:12:41;97681.34;;;7.54;86.59
78485;BME280;67773;50.806;8.776;2023-04-01T04:15:07;97685.91;;;7.52;86.48
78485;BME280;67773;50.806;8.776;2023-04-01T04:17:33;97686.88;;;7.51;86.82
78485;BME280;67773;50.806;8.776;2023-04-01T04:19:58;97679.69;;;7.53;86.91
78485;BME280;67773;50.806;8.776;2023-04-01T04:22:23;97688.84;;;7.47;87.34
78485;BME280;67773;50.806;8.776;2023-04-01T04:24:49;97688.25;;;7.44;87.23
78485;BME280;67773;50.806;8.776;2023-04-01T04:27:14;97690.16;;;7.42;86.95
78485;BME280;67773;50.806;8.776;2023-04-01T04:29:39;97690.75;;;7.45;87.43
78485;BME280;67773;50.806;8.776;2023-04-01T04:32:05;97688.25;;;7.44;87.51
78485;BME280;67773;50.806;8.776;2023-04-01T04:34:31;97681.06;;;7.33;87.04
78485;BME280;67773;50.806;8.776;2023-04-01T04:36:56;97697.31;;;7.40;87.82
78485;BME280;67773;50.806;8.776;2023-04-01T04:39:21;97693.28;;;7.47;87.34
78485;BME280;67773;50.806;8.776;2023-04-01T04:41:47;97696.78;;;7.47;87.75
78485;BME280;67773;50.806;8.776;2023-04-01T04:44:12;97693.94;;;7.38;87.39
78485;BME280;67773;50.806;8.776;2023-04-01T04:46:37;97695.63;;;7.39;87.28
78485;BME280;67773;50.806;8.776;2023-04-01T04:49:04;97704.50;;;7.38;87.51
78485;BME280;67773;50.806;8.776;2023-04-01T04:51:30;97688.38;;;7.30;87.65
78485;BME280;67773;50.806;8.776;2023-04-01T04:54:02;97707.34;;;7.35;87.57
78485;BME280;67773;50.806;8.776;2023-04-01T04:56:28;97702.81;;;7.37;87.64
78485;BME280;67773;50.806;8.776;2023-04-01T04:58:54;97681.69;;;7.24;87.55
78485;BME280;67773;50.806;8.776;2023-04-01T05:01:19;97687.81;;;7.24;87.95
78485;BME280;67773;50.806;8.776;2023-04-01T05:03:45;97709.25;;;7.45;87.71
78485;BME280;67773;50.806;8.776;2023-04-01T05:06:16;97704.50;;;7.38;88.20
78485;BME280;67773;50.806;8.776;2023-04-01T05:08:43;97701.34;;;7.33;88.09
78485;BME280;67773;50.806;8.776;2023-04-01T05:11:14;97705.78;;;7.32;88.76
78485;BME280;67773;50.806;8.776;2023-04-01T05:13:40;97702.06;;;7.35;88.90
78485;BME280;67773;50.806;8.776;2023-04-01T05:16:17;97706.84;;;7.30;89.18
78485;BME280;67773;50.806;8.776;2023-04-01T05:18:43;97705.13;;;7.29;88.48
78485;BME280;67773;50.806;8.776;2023-04-01T05:21:11;97703.88;;;7.21;89.17
78485;BME280;67773;50.806;8.776;2023-04-01T05:23:36;97705.22;;;7.27;89.59
78485;BME280;67773;50.806;8.776;2023-04-01T05:26:06;97706.06;;;7.28;89.47
78485;BME280;67773;50.806;8.776;2023-04-01T05:28:32;97712.31;;;7.27;89.39
78485;BME280;67773;50.806;8.776;2023-04-01T05:30:59;97704.19;;;7.30;89.41
78485;BME280;67773;50.806;8.776;2023-04-01T05:33:29;97714.44;;;7.21;89.51
78485;BME280;67773;50.806;8.776;2023-04-01T05:35:55;97705.56;;;7.22;89.63
78485;BME280;67773;50.806;8.776;2023-04-01T05:38:20;97713.38;;;7.24;89.31
78485;BME280;67773;50.806;8.776;2023-04-01T05:40:46;97701.13;;;7.23;89.94
78485;BME280;67773;50.806;8.776;2023-04-01T05:43:11;97711.47;;;7.26;89.71
78485;BME280;67773;50.806;8.776;2023-04-01T05:45:36;97714.00;;;7.28;89.75
78485;BME280;67773;50.806;8.776;2023-04-01T05:48:03;97712.41;;;7.25;89.57
78485;BME280;67773;50.806;8.776;2023-04-01T05:50:28;97706.28;;;7.24;89.14
78485;BME280;67773;50.806;8.776;2023-04-01T05:52:53;97690.97;;;7.17;89.58
78485;BME280;67773;50.806;8.776;2023-04-01T05:55:20;97690.34;;;7.26;89.57
78485;BME280;67773;50.806;8.776;2023-04-01T05:57:46;97712.94;;;7.43;90.14
78485;BME280;67773;50.806;8.776;2023-04-01T06:00:13;97720.88;;;7.30;89.45
78485;BME280;67773;50.806;8.776;2023-04-01T06:02:39;97718.31;;;7.29;90.13
78485;BME280;67773;50.806;8.776;2023-04-01T06:05:39;97719.06;;;7.31;89.90
78485;BME280;67773;50.806;8.776;2023-04-01T06:08:14;97719.28;;;7.28;89.64
78485;BME280;67773;50.806;8.776;2023-04-01T06:11:04;97720.03;;;7.30;89.77
78485;BME280;67773;50.806;8.776;2023-04-01T06:16:56;97714.09;;;7.39;88.98
78485;BME280;67773;50.806;8.776;2023-04-01T06:19:39;97723.91;;;7.37;89.37
78485;BME280;67773;50.806;8.776;2023-04-01T06:27:42;97720.22;;;7.39;88.98
78485;BME280;67773;50.806;8.776;2023-04-01T06:30:28;97725.81;;;7.47;88.74
78485;BME280;67773;50.806;8.776;2023-04-01T06:33:20;97719.28;;;7.53;88.19
78485;BME280;67773;50.806;8.776;2023-04-01T06:36:03;97725.19;;;7.44;88.25
78485;BME280;67773;50.806;8.776;2023-04-01T06:38:49;97721.38;;;7.48;89.13
78485;BME280;67773;50.806;8.776;2023-04-01T06:47:33;97725.88;;;7.84;87.78
78485;BME280;67773;50.806;8.776;2023-04-01T06:55:48;97723.81;;;8.00;87.27
78485;BME280;67773;50.806;8.776;2023-04-01T06:58:19;97725.19;;;8.06;86.95
78485;BME280;67773;50.806;8.776;2023-04-01T07:00:48;97719.91;;;8.06;86.23
78485;BME280;67773;50.806;8.776;2023-04-01T07:03:21;97714.56;;;7.95;86.19
78485;BME280;67773;50.806;8.776;2023-04-01T07:05:48;97725.06;;;8.07;86.85
78485;BME280;67773;50.806;8.776;2023-04-01T07:08:25;97724.53;;;8.15;86.18
78485;BME280;67773;50.806;8.776;2023-04-01T07:11:03;97716.16;;;8.21;85.64
78485;BME280;67773;50.806;8.776;2023-04-01T07:13:36;97723.94;;;8.23;86.13
78485;BME280;67773;50.806;8.776;2023-04-01T07:16:14;97718.97;;;8.31;85.62
78485;BME280;67773;50.806;8.776;2023-04-01T07:18:50;97721.31;;;8.35;85.43
78485;BME280;67773;50.806;8.776;2023-04-01T07:21:34;97706.34;;;8.23;85.28
78485;BME280;67773;50.806;8.776;2023-04-01T07:24:05;97718.25;;;8.29;85.04
78485;BME280;67773;50.806;8.776;2023-04-01T07:26:35;97716.53;;;8.41;84.54
78485;BME280;67773;50.806;8.776;2023-04-01T07:29:00;97720.38;;;8.36;85.07
78485;BME280;67773;50.806;8.776;2023-04-01T07:31:45;97721.94;;;8.39;84.54
78485;BME280;67773;50.806;8.776;2023-04-01T07:34:39;97724.75;;;8.49;84.46
78485;BME280;67773;50.806;8.776;2023-04-01T07:37:12;97724.84;;;8.71;83.93
78485;BME280;67773;50.806;8.776;2023-04-01T07:47:51;97735.72;;;8.90;83.24
78485;BME280;67773;50.806;8.776;2023-04-01T07:50:32;97738.88;;;8.95;83.11
78485;BME280;67773;50.806;8.776;2023-04-01T08:04:09;97739.03;;;9.16;81.58
78485;BME280;67773;50.806;8.776;2023-04-01T08:07:02;97743.44;;;9.29;81.76
78485;BME280;67773;50.806;8.776;2023-04-01T08:09:51;97746.91;;;9.29;81.29
78485;BME280;67773;50.806;8.776;2023-04-01T08:22:43;97747.75;;;8.94;83.03
78485;BME280;67773;50.806;8.776;2023-04-01T08:25:16;97754.69;;;9.08;83.53
78485;BME280;67773;50.806;8.776;2023-04-01T08:28:15;97757.09;;;9.11;83.49
78485;BME280;67773;50.806;8.776;2023-04-01T08:31:03;97768.25;;;9.04;82.59
78485;BME280;67773;50.806;8.776;2023-04-01T08:33:31;97769.38;;;9.12;83.47
78485;BME280;67773;50.806;8.776;2023-04-01T08:36:31;97763.94;;;9.14;83.59
78485;BME280;67773;50.806;8.776;2023-04-01T08:39:15;97765.56;;;9.28;82.73
78485;BME280;67773;50.806;8.776;2023-04-01T08:42:00;97762.03;;;9.27;82.95
78485;BME280;67773;50.806;8.776;2023-04-01T08:44:37;97773.84;;;9.23;82.72
78485;BME280;67773;50.806;8.776;2023-04-01T08:53:14;97773.09;;;9.10;83.00
78485;BME280;67773;50.806;8.776;2023-04-01T09:01:43;97778.19;;;9.35;82.70
78485;BME280;67773;50.806;8.776;2023-04-01T09:10:52;97783.78;;;9.54;81.45
78485;BME280;67773;50.806;8.776;2023-04-01T09:23:49;97780.81;;;9.93;79.63
78485;BME280;67773;50.806;8.776;2023-04-01T09:26:53;97783.59;;;9.80;80.10
78485;BME280;67773;50.806;8.776;2023-04-01T09:33:04;97796.56;;;9.61;80.77
78485;BME280;67773;50.806;8.776;2023-04-01T09:40:58;97786.31;;;9.78;80.41
78485;BME280;67773;50.806;8.776;2023-04-01T09:43:43;97800.69;;;9.98;79.62
78485;BME280;67773;50.806;8.776;2023-04-01T09:49:10;97807.31;;;9.93;81.18
78485;BME280;67773;50.806;8.776;2023-04-01T09:52:08;97808.88;;;10.29;79.97
78485;BME280;67773;50.806;8.776;2023-04-01T09:55:00;97813.22;;;10.30;78.78
78485;BME280;67773;50.806;8.776;2023-04-01T09:57:55;97807.69;;;10.33;79.46
78485;BME280;67773;50.806;8.776;2023-04-01T10:07:01;97815.16;;;10.28;79.43
78485;BME280;67773;50.806;8.776;2023-04-01T10:24:32;97810.06;;;10.58;80.67
78485;BME280;67773;50.806;8.776;2023-04-01T10:33:16;97813.09;;;10.20;82.45
78485;BME280;67773;50.806;8.776;2023-04-01T10:38:56;97817.28;;;10.00;82.99
78485;BME280;67773;50.806;8.776;2023-04-01T10:44:45;97818.16;;;10.12;82.16
78485;BME280;67773;50.806;8.776;2023-04-01T11:23:44;97833.69;;;9.83;84.53
78485;BME280;67773;50.806;8.776;2023-04-01T11:32:18;97839.81;;;9.72;85.11
78485;BME280;67773;50.806;8.776;2023-04-01T11:34:55;97843.78;;;9.78;85.34
78485;BME280;67773;50.806;8.776;2023-04-01T11:37:38;97837.28;;;9.82;83.92
78485;BME280;67773;50.806;8.776;2023-04-01T11:40:27;97839.69;;;9.85;85.01
78485;BME280;67773;50.806;8.776;2023-04-01T11:45:37;97847.66;;;9.85;85.32
78485;BME280;67773;50.806;8.776;2023-04-01T11:50:46;97858.00;;;9.77;84.67
78485;BME280;67773;50.806;8.776;2023-04-01T11:59:34;97862.69;;;9.73;85.31
78485;BME280;67773;50.806;8.776;2023-04-01T12:02:12;97866.09;;;9.98;84.86
78485;BME280;67773;50.806;8.776;2023-04-01T12:05:32;97868.88;;;10.07;83.63
78485;BME280;67773;50.806;8.776;2023-04-01T12:10:34;97871.19;;;10.01;83.36
78485;BME280;67773;50.806;8.776;2023-04-01T12:16:03;97875.16;;;10.06;83.26
78485;BME280;67773;50.806;8.776;2023-04-01T12:21:42;97882.97;;;10.08;82.81
78485;BME280;67773;50.806;8.776;2023-04-01T12:26:57;97881.81;;;10.46;82.93
78485;BME280;67773;50.806;8.776;2023-04-01T12:38:31;97885.94;;;11.15;78.92
78485;BME280;67773;50.806;8.776;2023-04-01T12:41:22;97887.97;;;11.12;79.29
78485;BME280;67773;50.806;8.776;2023-04-01T12:47:04;97887.59;;;11.27;78.48
78485;BME280;67773;50.806;8.776;2023-04-01T12:52:15;97891.25;;;11.47;76.39
78485;BME280;67773;50.806;8.776;2023-04-01T12:57:59;97887.84;;;11.13;77.16
78485;BME280;67773;50.806;8.776;2023-04-01T13:01:09;97900.72;;;10.86;78.61
78485;BME280;67773;50.806;8.776;2023-04-01T13:09:40;97913.88;;;10.87;79.99
78485;BME280;67773;50.806;8.776;2023-04-01T13:15:11;97910.16;;;10.67;78.96
78485;BME280;67773;50.806;8.776;2023-04-01T13:17:48;97912.19;;;10.75;80.81
78485;BME280;67773;50.806;8.776;2023-04-01T13:23:28;97914.63;;;10.67;82.41
78485;BME280;67773;50.806;8.776;2023-04-01T13:26:13;97917.63;;;10.74;81.54
78485;BME280;67773;50.806;8.776;2023-04-01T13:31:47;97932.59;;;10.63;78.85
78485;BME280;67773;50.806;8.776;2023-04-01T13:37:47;97932.94;;;10.48;78.62
78485;BME280;67773;50.806;8.776;2023-04-01T13:43:02;97940.44;;;10.54;79.59
78485;BME280;67773;50.806;8.776;2023-04-01T13:45:35;97952.00;;;10.64;79.99
78485;BME280;67773;50.806;8.776;2023-04-01T13:48:30;97941.25;;;10.77;79.45
78485;BME280;67773;50.806;8.776;2023-04-01T13:56:34;97950.44;;;10.95;77.45
78485;BME280;67773;50.806;8.776;2023-04-01T13:59:47;97953.66;;;11.10;79.06
78485;BME280;67773;50.806;8.776;2023-04-01T14:07:59;97956.06;;;11.02;78.55
78485;BME280;67773;50.806;8.776;2023-04-01T14:13:10;97951.16;;;10.75;79.01
78485;BME280;67773;50.806;8.776;2023-04-01T14:18:29;97961.06;;;10.84;78.19
78485;BME280;67773;50.806;8.776;2023-04-01T14:21:11;97952.84;;;10.76;79.29
78485;BME280;67773;50.806;8.776;2023-04-01T14:23:54;97961.66;;;10.76;78.42
78485;BME280;67773;50.806;8.776;2023-04-01T14:26:40;97961.78;;;10.75;79.33
78485;BME280;67773;50.806;8.776;2023-04-01T14:34:25;97967.09;;;10.86;79.30
78485;BME280;67773;50.806;8.776;2023-04-01T14:36:58;97969.97;;;11.05;78.85
78485;BME280;67773;50.806;8.776;2023-04-01T14:44:57;97969.44;;;11.11;78.00
78485;BME280;67773;50.806;8.776;2023-04-01T14:47:46;97975.59;;;11.12;78.05
78485;BME280;67773;50.806;8.776;2023-04-01T14:50:16;97977.44;;;11.00;77.34
78485;BME280;67773;50.806;8.776;2023-04-01T14:52:55;97977.31;;;10.68;79.04
78485;BME280;67773;50.806;8.776;2023-04-01T14:55:32;97978.53;;;10.64;80.58
78485;BME280;67773;50.806;8.776;2023-04-01T14:58:26;97988.19;;;10.65;80.08
78485;BME280;67773;50.806;8.776;2023-04-01T15:06:14;97999.88;;;10.16;80.50
78485;BME280;67773;50.806;8.776;2023-04-01T15:09:00;98001.44;;;10.19;80.90
78485;BME280;67773;50.806;8.776;2023-04-01T15:17:13;98007.59;;;10.54;80.42
78485;BME280;67773;50.806;8.776;2023-04-01T15:22:34;98013.63;;;10.56;82.06
78485;BME280;67773;50.806;8.776;2023-04-01T15:25:15;98013.03;;;10.64;82.87
78485;BME280;67773;50.806;8.776;2023-04-01T15:33:09;98018.09;;;11.12;78.86
78485;BME280;67773;50.806;8.776;2023-04-01T15:36:00;98024.13;;;11.14;78.96
78485;BME280;67773;50.806;8.776;2023-04-01T15:38:34;98026.88;;;11.23;77.98
78485;BME280;67773;50.806;8.776;2023-04-01T15:41:16;98026.31;;;11.20;77.86
78485;BME280;67773;50.806;8.776;2023-04-01T15:43:48;98020.63;;;11.13;77.31
78485;BME280;67773;50.806;8.776;2023-04-01T15:46:47;98031.03;;;11.16;77.79
78485;BME280;67773;50.806;8.776;2023-04-01T15:52:09;98029.56;;;10.90;80.10
78485;BME280;67773;50.806;8.776;2023-04-01T16:00:56;98043.50;;;10.47;78.86
78485;BME280;67773;50.806;8.776;2023-04-01T16:03:55;98043.63;;;10.46;80.54
78485;BME280;67773;50.806;8.776;2023-04-01T16:19:55;98058.97;;;10.53;81.03
78485;BME280;67773;50.806;8.776;2023-04-01T16:22:32;98068.09;;;10.49;81.26
78485;BME280;67773;50.806;8.776;2023-04-01T16:25:31;98058.81;;;10.44;81.23
78485;BME280;67773;50.806;8.776;2023-04-01T16:28:14;98077.78;;;10.61;80.26
78485;BME280;67773;50.806;8.776;2023-04-01T16:30:55;98073.06;;;10.43;80.55
78485;BME280;67773;50.806;8.776;2023-04-01T16:33:32;98077.97;;;10.36;81.80
78485;BME280;67773;50.806;8.776;2023-04-01T16:39:02;98081.50;;;10.48;78.10
78485;BME280;67773;50.806;8.776;2023-04-01T16:41:34;98089.56;;;10.46;80.86
78485;BME280;67773;50.806;8.776;2023-04-01T16:44:20;98094.28;;;10.43;80.57
78485;BME280;67773;50.806;8.776;2023-04-01T16:46:51;98092.69;;;10.51;82.35
78485;BME280;67773;50.806;8.776;2023-04-01T16:49:47;98102.09;;;10.44;79.84
78485;BME280;67773;50.806;8.776;2023-04-01T16:52:34;98099.78;;;10.39;77.28
78485;BME280;67773;50.806;8.776;2023-04-01T16:55:15;98096.00;;;10.55;78.07
78485;BME280;67773;50.806;8.776;2023-04-01T16:57:51;98112.09;;;10.40;78.17
78485;BME280;67773;50.806;8.776;2023-04-01T17:03:12;98122.53;;;10.31;78.01
78485;BME280;67773;50.806;8.776;2023-04-01T17:08:40;98123.63;;;10.28;80.62
78485;BME280;67773;50.806;8.776;2023-04-01T17:11:17;98135.72;;;10.20;83.31
78485;BME280;67773;50.806;8.776;2023-04-01T17:13:49;98138.91;;;10.25;81.20
78485;BME280;67773;50.806;8.776;2023-04-01T17:17:06;98136.78;;;10.17;78.14
78485;BME280;67773;50.806;8.776;2023-04-01T17:22:50;98150.78;;;10.32;78.92
78485;BME280;67773;50.806;8.776;2023-04-01T17:33:50;98165.56;;;10.10;77.87
78485;BME280;67773;50.806;8.776;2023-04-01T17:36:36;98180.22;;;10.03;78.56
78485;BME280;67773;50.806;8.776;2023-04-01T17:47:26;98191.38;;;9.96;78.86
78485;BME280;67773;50.806;8.776;2023-04-01T17:49:57;98199.22;;;9.97;79.29
78485;BME280;67773;50.806;8.776;2023-04-01T17:58:04;98206.84;;;9.89;82.57
78485;BME280;67773;50.806;8.776;2023-04-01T18:01:26;98214.00;;;9.76;82.19
78485;BME280;67773;50.806;8.776;2023-04-01T18:06:30;98217.38;;;9.78;81.86
78485;BME280;67773;50.806;8.776;2023-04-01T18:09:37;98227.88;;;9.79;83.16
78485;BME280;67773;50.806;8.776;2023-04-01T18:22:44;98242.75;;;9.57;85.95
78485;BME280;67773;50.806;8.776;2023-04-01T18:25:33;98252.59;;;9.54;86.36
78485;BME280;67773;50.806;8.776;2023-04-01T18:28:40;98259.91;;;9.51;86.27
78485;BME280;67773;50.806;8.776;2023-04-01T18:31:24;98256.53;;;9.49;86.26
78485;BME280;67773;50.806;8.776;2023-04-01T18:39:07;98272.41;;;9.62;83.00
78485;BME280;67773;50.806;8.776;2023-04-01T18:41:42;98295.31;;;9.63;83.88
78485;BME280;67773;50.806;8.776;2023-04-01T18:44:36;98295.59;;;9.58;83.50
78485;BME280;67773;50.806;8.776;2023-04-01T18:47:34;98302.59;;;9.46;83.57
78485;BME280;67773;50.806;8.776;2023-04-01T18:50:27;98308.84;;;9.45;84.63
78485;BME280;67773;50.806;8.776;2023-04-01T18:53:08;98314.59;;;9.52;84.59
78485;BME280;67773;50.806;8.776;2023-04-01T18:55:40;98319.75;;;9.28;84.92
78485;BME280;67773;50.806;8.776;2023-04-01T18:58:19;98324.50;;;9.23;86.86
78485;BME280;67773;50.806;8.776;2023-04-01T19:00:56;98328.19;;;9.08;86.37
78485;BME280;67773;50.806;8.776;2023-04-01T19:06:00;98335.56;;;9.03;89.47
78485;BME280;67773;50.806;8.776;2023-04-01T19:16:04;98346.75;;;8.93;89.70
78485;BME280;67773;50.806;8.776;2023-04-01T19:26:58;98350.06;;;8.97;89.00
78485;BME280;67773;50.806;8.776;2023-04-01T19:29:47;98350.91;;;8.98;89.70
78485;BME280;67773;50.806;8.776;2023-04-01T19:32:34;98363.19;;;8.99;89.87
78485;BME280;67773;50.806;8.776;2023-04-01T19:35:17;98360.72;;;8.95;90.05
78485;BME280;67773;50.806;8.776;2023-04-01T19:38:04;98369.44;;;8.98;90.04
78485;BME280;67773;50.806;8.776;2023-04-01T19:40:48;98367.75;;;8.96;90.53
78485;BME280;67773;50.806;8.776;2023-04-01T19:46:23;98373.03;;;8.96;90.08
78485;BME280;67773;50.806;8.776;2023-04-01T19:51:30;98374.16;;;8.92;90.08
78485;BME280;67773;50.806;8.776;2023-04-01T19:54:17;98381.34;;;8.90;89.81
78485;BME280;67773;50.806;8.776;2023-04-01T20:00:25;98393.63;;;8.91;89.79
78485;BME280;67773;50.806;8.776;2023-04-01T20:03:04;98389.41;;;8.89;90.38
78485;BME280;67773;50.806;8.776;2023-04-01T20:11:10;98393.47;;;8.80;89.72
78485;BME280;67773;50.806;8.776;2023-04-01T20:16:09;98423.91;;;8.87;90.34
78485;BME280;67773;50.806;8.776;2023-04-01T20:18:48;98417.94;;;8.84;90.45